Time;durP1;ratioP1;P1;durP2;ratioP2;P2;SDS_P1;SDS_P2;PMS_P1;PMS_P2;Temp;Humidity;BMP_temperature;BMP_pressure;BME280_temperature;BME280_humidity;BME280_pressure;Samples;Min_cycle;Max_cycle;Signal;HPM_P1;HPM_P2
2022/05/20 00:05:12;;;;;;;4.28;1.85;;;19.10;99.90;;;;;;5054369;28;20048;-81
2022/05/20 00:10:59;;;;;;;8.10;3.25;;;18.90;99.90;;;;;;5065992;28;20027;-81
2022/05/20 00:20:40;;;;;;;3.33;1.88;;;18.70;99.90;;;;;;5055211;28;20075;-81
2022/05/20 00:26:28;;;;;;;4.55;1.90;;;18.60;99.90;;;;;;5054021;28;20024;-81
2022/05/20 00:32:16;;;;;;;2.40;1.73;;;18.50;99.90;;;;;;5074112;28;20043;-81
2022/05/20 00:38:03;;;;;;;3.60;1.92;;;18.30;99.90;;;;;;5073713;28;20375;-81
2022/05/20 00:43:51;;;;;;;5.90;2.10;;;18.10;99.90;;;;;;5073259;28;20514;-81
2022/05/20 00:49:43;;;;;;;3.00;1.92;;;18.00;99.90;;;;;;5073811;28;20014;-81
2022/05/20 00:55:30;;;;;;;2.00;1.63;;;17.80;99.90;;;;;;5073706;28;20023;-81
2022/05/20 01:01:19;;;;;;;5.00;1.92;;;17.70;99.90;;;;;;5074043;28;20066;-81
2022/05/20 01:07:08;;;;;;;1.95;1.63;;;17.60;99.90;;;;;;5073667;28;20070;-81
2022/05/20 01:12:57;;;;;;;2.72;1.90;;;17.50;99.90;;;;;;5073475;28;20028;-81
2022/05/20 01:22:39;;;;;;;3.40;1.80;;;17.20;99.90;;;;;;5073272;28;20046;-81
2022/05/20 01:28:29;;;;;;;11.18;1.95;;;17.10;99.90;;;;;;5073548;28;20146;-81
2022/05/20 01:34:16;;;;;;;6.50;1.88;;;17.00;99.90;;;;;;5073249;28;20401;-81
2022/05/20 01:40:06;;;;;;;3.05;1.55;;;16.80;99.90;;;;;;5073401;28;20502;-81
2022/05/20 02:09:22;;;;;;;3.75;2.40;;;16.50;99.90;;;;;;5050102;28;20035;-81
2022/05/20 02:25:32;;;;;;;3.35;2.30;;;16.60;99.90;;;;;;5034737;28;20437;-82
2022/05/20 02:31:29;;;;;;;4.63;1.80;;;16.60;99.90;;;;;;5034447;28;20108;-81
2022/05/20 02:36:58;;;;;;;3.47;2.00;;;16.60;99.90;;;;;;5055857;28;19993;-81
2022/05/20 02:42:45;;;;;;;1.98;1.63;;;16.50;99.90;;;;;;5055658;28;20039;-81
2022/05/20 02:48:34;;;;;;;3.70;2.10;;;16.60;99.90;;;;;;5069943;28;20055;-81
2022/05/20 02:54:22;;;;;;;4.93;2.33;;;16.60;99.90;;;;;;5075150;28;20040;-81
2022/05/20 03:06:17;;;;;;;3.35;3.03;;;16.70;99.90;;;;;;5075447;28;20074;-81
2022/05/20 03:12:05;;;;;;;5.40;4.03;;;16.80;99.90;;;;;;5075451;28;20508;-81
2022/05/20 03:17:52;;;;;;;6.32;3.67;;;16.90;99.90;;;;;;5074820;28;20105;-81
2022/05/20 03:27:41;;;;;;;3.65;2.80;;;16.80;99.90;;;;;;5060478;28;20028;-81
2022/05/20 03:33:29;;;;;;;4.60;3.70;;;16.60;99.90;;;;;;5060779;28;20061;-81
2022/05/20 03:39:19;;;;;;;5.50;3.13;;;16.50;99.90;;;;;;5065045;28;20507;-81
2022/05/20 03:45:08;;;;;;;5.50;3.25;;;16.50;99.90;;;;;;5074797;28;20015;-81
2022/05/20 03:50:55;;;;;;;3.70;2.58;;;16.50;99.90;;;;;;5061224;28;20070;-81
2022/05/20 03:56:43;;;;;;;4.03;3.55;;;16.60;99.90;;;;;;5060499;28;20039;-81
2022/05/20 04:02:31;;;;;;;6.28;5.57;;;16.70;99.90;;;;;;5055390;28;20044;-81
2022/05/20 04:10:56;;;;;;;6.88;4.18;;;16.70;99.90;;;;;;4964094;28;20062;-82
2022/05/20 04:13:22;;;;;;;4.22;3.75;;;16.70;99.90;;;;;;4968904;28;20018;-83
2022/05/20 04:15:51;;;;;;;5.38;4.50;;;16.70;99.90;;;;;;4954420;28;20031;-83
2022/05/20 04:18:17;;;;;;;6.85;5.13;;;16.70;99.90;;;;;;4965755;28;20542;-83
2022/05/20 04:20:47;;;;;;;4.45;4.03;;;16.70;99.90;;;;;;4957220;28;20172;-82
2022/05/20 04:23:14;;;;;;;7.25;5.00;;;16.70;99.90;;;;;;4951073;29;20027;-82
2022/05/20 04:25:40;;;;;;;5.45;4.75;;;16.70;99.90;;;;;;4954591;29;20026;-82
2022/05/20 04:28:05;;;;;;;5.88;4.50;;;16.70;99.90;;;;;;4952823;28;20034;-82
2022/05/20 04:30:31;;;;;;;5.68;4.93;;;16.70;99.90;;;;;;4954184;28;20411;-83
2022/05/20 04:32:56;;;;;;;7.93;6.03;;;16.70;99.90;;;;;;4958100;28;22138;-82
2022/05/20 04:35:24;;;;;;;7.88;6.90;;;16.70;99.90;;;;;;4961273;28;20043;-82
2022/05/20 04:37:50;;;;;;;29.40;20.65;;;16.70;99.90;;;;;;4952861;28;20035;-82
2022/05/20 04:40:16;;;;;;;24.30;16.90;;;16.80;99.90;;;;;;4964891;28;20612;-82
2022/05/20 04:48:10;;;;;;;32.72;24.10;;;17.20;99.90;;;;;;4951161;28;20518;-81
2022/05/20 04:50:36;;;;;;;35.30;24.88;;;17.40;99.90;;;;;;4951104;28;20019;-82
2022/05/20 04:53:02;;;;;;;26.55;19.40;;;17.50;99.90;;;;;;4948549;28;20024;-81
2022/05/20 04:55:27;;;;;;;34.05;23.85;;;17.60;99.90;;;;;;4949550;28;20372;-81
2022/05/20 04:57:53;;;;;;;31.83;23.25;;;17.70;99.90;;;;;;4952032;28;20427;-81
2022/05/20 05:00:28;;;;;;;26.92;21.02;;;17.80;99.90;;;;;;4944974;29;20031;-81
2022/05/20 05:02:54;;;;;;;29.13;21.58;;;18.00;99.90;;;;;;4943060;29;20031;-81
2022/05/20 05:05:24;;;;;;;31.58;21.95;;;18.10;99.90;;;;;;4953963;28;20111;-81
2022/05/20 05:07:51;;;;;;;25.50;21.15;;;18.20;99.90;;;;;;4949031;28;20031;-81
2022/05/20 05:10:22;;;;;;;34.90;21.67;;;18.20;99.90;;;;;;4962493;28;20042;-81
2022/05/20 05:12:48;;;;;;;31.48;21.25;;;18.20;99.90;;;;;;4973612;28;20039;-81
2022/05/20 05:15:14;;;;;;;37.92;21.48;;;18.30;99.90;;;;;;4972773;28;20027;-81
2022/05/20 05:20:27;;;;;;;29.00;18.88;;;18.20;99.90;;;;;;4973193;28;20041;-81
2022/05/20 05:22:54;;;;;;;32.55;19.08;;;18.20;99.90;;;;;;4973563;28;20112;-81
2022/05/20 05:25:23;;;;;;;27.98;20.17;;;18.20;99.90;;;;;;4954934;28;20495;-81
2022/05/20 05:27:49;;;;;;;27.27;20.13;;;18.30;99.90;;;;;;4973400;28;20023;-81
2022/05/20 05:30:15;;;;;;;28.08;20.38;;;18.30;99.90;;;;;;4973790;28;20515;-81
2022/05/20 05:32:41;;;;;;;30.02;20.20;;;18.40;99.90;;;;;;4973768;28;20066;-81
2022/05/20 05:35:10;;;;;;;24.25;18.20;;;18.40;99.90;;;;;;4971711;28;20470;-81
2022/05/20 05:37:38;;;;;;;29.75;17.58;;;18.50;99.90;;;;;;4982519;28;20026;-81
2022/05/20 05:40:06;;;;;;;22.42;17.55;;;18.50;99.90;;;;;;4956232;28;20433;-81
2022/05/20 05:42:32;;;;;;;26.88;18.70;;;18.50;99.90;;;;;;4972481;28;20113;-81
2022/05/20 05:44:58;;;;;;;25.08;18.52;;;18.60;99.90;;;;;;4975246;28;20114;-81
2022/05/20 05:47:24;;;;;;;23.13;17.35;;;18.60;99.90;;;;;;4974554;28;20101;-81
2022/05/20 05:49:49;;;;;;;23.13;16.15;;;18.60;99.90;;;;;;4976608;28;20132;-81
2022/05/20 05:52:15;;;;;;;23.20;16.48;;;18.60;99.90;;;;;;4975776;28;20082;-81
2022/05/20 05:54:41;;;;;;;26.77;16.73;;;18.60;99.90;;;;;;4980853;28;20121;-81
2022/05/20 05:57:07;;;;;;;23.98;15.73;;;18.70;99.90;;;;;;4959876;28;20046;-81
2022/05/20 05:59:33;;;;;;;20.92;13.88;;;18.70;99.90;;;;;;4977298;28;20030;-81
2022/05/20 06:02:00;;;;;;;25.55;15.30;;;18.80;99.90;;;;;;4955471;28;20039;-81
2022/05/20 06:04:26;;;;;;;22.38;13.90;;;18.80;99.90;;;;;;4963615;28;20027;-81
2022/05/20 06:06:52;;;;;;;21.27;13.10;;;18.80;99.90;;;;;;4975785;28;20034;-81
2022/05/20 06:09:18;;;;;;;17.23;12.23;;;18.90;99.90;;;;;;4975942;28;20030;-81
2022/05/20 06:11:44;;;;;;;17.23;11.70;;;18.90;99.90;;;;;;4976400;28;20568;-81
2022/05/20 06:14:10;;;;;;;13.52;8.85;;;19.00;99.90;;;;;;4976510;28;20105;-81
2022/05/20 06:16:37;;;;;;;14.98;10.52;;;18.90;99.90;;;;;;4976400;28;20031;-81
2022/05/20 06:19:03;;;;;;;12.00;10.48;;;19.00;99.90;;;;;;4976528;28;20031;-81
2022/05/20 06:21:28;;;;;;;15.13;10.48;;;18.90;99.90;;;;;;4976118;28;20034;-81
2022/05/20 06:23:54;;;;;;;13.85;9.75;;;19.00;99.90;;;;;;4975992;28;20037;-81
2022/05/20 06:26:19;;;;;;;20.90;13.85;;;19.00;99.90;;;;;;4975972;28;20085;-82
2022/05/20 06:28:45;;;;;;;21.15;15.73;;;19.00;99.90;;;;;;4976138;28;20356;-79
2022/05/20 06:31:11;;;;;;;24.33;16.02;;;19.00;99.90;;;;;;4976221;28;20027;-79
2022/05/20 06:33:38;;;;;;;16.38;13.75;;;19.00;99.90;;;;;;4976044;28;20027;-79
2022/05/20 06:41:32;;;;;;;30.42;19.20;;;19.00;99.90;;;;;;4976159;28;20502;-79
2022/05/20 06:43:58;;;;;;;25.98;20.10;;;19.00;99.90;;;;;;4975800;28;20031;-79
2022/05/20 06:46:24;;;;;;;24.95;19.13;;;19.00;99.90;;;;;;4975945;28;20023;-78
2022/05/20 06:48:53;;;;;;;23.02;19.60;;;19.00;99.90;;;;;;4975870;28;20019;-79
2022/05/20 06:51:21;;;;;;;20.15;16.63;;;19.00;99.90;;;;;;4975736;28;20035;-78
2022/05/20 06:53:47;;;;;;;21.85;15.77;;;18.90;99.90;;;;;;4975346;28;20027;-79
2022/05/20 06:56:15;;;;;;;22.50;15.85;;;18.90;99.90;;;;;;4975426;28;20066;-79
2022/05/20 06:58:41;;;;;;;23.80;19.10;;;18.90;99.90;;;;;;4975621;28;20430;-79
2022/05/20 07:01:07;;;;;;;18.48;14.27;;;18.90;99.90;;;;;;4975686;28;20478;-79
2022/05/20 07:03:34;;;;;;;26.83;19.75;;;18.90;99.90;;;;;;4974059;28;20553;-79
2022/05/20 07:06:02;;;;;;;24.38;18.35;;;18.90;99.90;;;;;;4975453;28;20081;-79
2022/05/20 07:08:27;;;;;;;31.08;23.80;;;18.90;99.90;;;;;;4975111;28;20023;-79
2022/05/20 07:10:53;;;;;;;25.70;21.92;;;19.00;99.90;;;;;;4975243;28;20395;-79
2022/05/20 07:13:18;;;;;;;33.72;20.50;;;19.00;99.90;;;;;;4975277;28;20031;-79
2022/05/20 07:15:44;;;;;;;39.33;27.27;;;19.00;99.90;;;;;;4975309;28;20035;-79
2022/05/20 07:18:10;;;;;;;42.28;28.00;;;19.10;99.90;;;;;;4975304;28;20520;-79
2022/05/20 07:20:35;;;;;;;37.90;24.55;;;19.10;99.90;;;;;;4957934;28;20487;-79
2022/05/20 07:23:01;;;;;;;25.73;20.08;;;19.10;99.90;;;;;;4975003;28;20475;-79
2022/05/20 07:25:26;;;;;;;21.75;16.00;;;19.10;99.90;;;;;;4974902;28;20034;-79
2022/05/20 07:27:57;;;;;;;23.80;18.88;;;19.10;99.90;;;;;;4973964;28;20046;-79
2022/05/20 07:30:23;;;;;;;25.85;20.13;;;19.10;99.90;;;;;;4975276;28;20021;-79
2022/05/20 07:32:48;;;;;;;19.80;16.55;;;19.10;99.90;;;;;;4975016;28;20034;-79
2022/05/20 07:35:16;;;;;;;23.42;18.92;;;19.10;99.90;;;;;;4975142;28;20038;-79
2022/05/20 07:37:42;;;;;;;22.10;17.70;;;19.10;99.90;;;;;;4973584;28;20103;-79
2022/05/20 07:40:08;;;;;;;24.42;20.17;;;19.20;99.90;;;;;;4974654;28;20027;-79
2022/05/20 07:42:34;;;;;;;22.25;17.27;;;19.20;99.90;;;;;;4974786;28;20058;-79
2022/05/20 07:45:01;;;;;;;31.52;23.60;;;19.20;99.90;;;;;;4957436;28;20434;-79
2022/05/20 07:47:28;;;;;;;19.20;16.70;;;19.30;99.90;;;;;;4972571;28;20041;-79
2022/05/20 07:49:53;;;;;;;26.52;17.35;;;19.30;99.90;;;;;;4970988;28;20077;-79
2022/05/20 07:55:20;;;;;;;27.13;17.90;;;19.30;99.90;;;;;;4914429;29;20089;-79
2022/05/20 07:57:46;;;;;;;20.27;16.85;;;19.30;99.90;;;;;;4944880;28;20042;-79
2022/05/20 08:00:14;;;;;;;17.23;14.55;;;19.30;99.90;;;;;;4975134;28;20493;-80
2022/05/20 08:02:42;;;;;;;33.25;23.38;;;19.40;99.90;;;;;;4974413;28;20023;-79
2022/05/20 08:05:08;;;;;;;25.50;20.25;;;19.40;99.90;;;;;;4974178;28;20395;-79
2022/05/20 08:07:37;;;;;;;22.77;16.70;;;19.40;99.90;;;;;;4973866;28;20022;-80
2022/05/20 08:10:06;;;;;;;34.65;24.15;;;19.40;99.90;;;;;;4974162;28;20070;-80
2022/05/20 08:12:32;;;;;;;31.80;22.38;;;19.40;99.90;;;;;;4974887;28;20121;-80
2022/05/20 08:14:57;;;;;;;23.52;18.70;;;19.40;99.90;;;;;;4956576;28;20593;-80
2022/05/20 08:17:24;;;;;;;22.42;17.08;;;19.50;99.90;;;;;;4973351;28;20390;-80
2022/05/20 08:19:52;;;;;;;27.35;18.42;;;19.50;99.90;;;;;;4974826;28;20458;-80
2022/05/20 08:22:22;;;;;;;30.13;19.98;;;19.60;99.90;;;;;;4957391;28;20031;-80
2022/05/20 08:24:52;;;;;;;25.63;15.73;;;19.60;99.90;;;;;;4973270;28;20023;-80
2022/05/20 08:27:23;;;;;;;21.50;17.85;;;19.70;99.90;;;;;;4973972;28;20103;-80
2022/05/20 08:29:50;;;;;;;35.38;24.38;;;19.80;99.90;;;;;;4973900;28;20054;-80
2022/05/20 08:32:16;;;;;;;21.67;17.45;;;19.80;99.90;;;;;;4974039;28;20023;-80
2022/05/20 08:34:43;;;;;;;31.05;24.42;;;19.80;99.90;;;;;;4973713;28;20031;-80
2022/05/20 08:37:10;;;;;;;25.25;19.52;;;19.80;99.90;;;;;;4973970;28;20383;-80
2022/05/20 08:39:35;;;;;;;37.95;26.92;;;19.80;99.90;;;;;;4956463;28;20026;-80
2022/05/20 08:42:02;;;;;;;33.53;23.95;;;19.90;99.90;;;;;;4973842;28;20383;-79
2022/05/20 08:44:30;;;;;;;21.17;18.05;;;19.90;99.90;;;;;;4973531;28;20019;-80
2022/05/20 08:47:48;;;;;;;22.10;16.45;;;19.90;99.90;;;;;;4973676;28;20038;-80
2022/05/20 08:50:20;;;;;;;32.67;24.00;;;20.00;99.90;;;;;;4961014;28;20035;-79
2022/05/20 08:52:46;;;;;;;31.95;21.88;;;19.90;99.90;;;;;;4973801;28;20031;-79
2022/05/20 08:55:13;;;;;;;31.48;23.25;;;19.90;99.90;;;;;;4973311;28;20037;-80
2022/05/20 08:57:44;;;;;;;39.47;25.95;;;19.90;99.90;;;;;;4956262;28;20027;-79
2022/05/20 09:00:12;;;;;;;33.17;27.75;;;19.90;99.90;;;;;;4974204;28;20031;-80
2022/05/20 09:02:38;;;;;;;34.85;26.33;;;19.90;99.90;;;;;;4973846;28;20039;-80
2022/05/20 09:05:29;;;;;;;30.67;22.77;;;19.90;99.90;;;;;;4972199;28;20023;-80
2022/05/20 09:08:04;;;;;;;28.52;22.45;;;19.90;99.90;;;;;;4973325;28;20034;-80
2022/05/20 09:10:31;;;;;;;36.15;26.27;;;19.90;99.90;;;;;;4973711;28;20046;-79
2022/05/20 09:13:17;;;;;;;37.53;26.98;;;19.90;99.90;;;;;;4956630;28;20026;-79
2022/05/20 09:15:56;;;;;;;25.08;19.10;;;20.00;99.90;;;;;;4956342;28;20031;-79
2022/05/20 09:18:42;;;;;;;33.13;21.50;;;20.00;99.90;;;;;;4975420;28;20101;-79
2022/05/20 09:21:32;;;;;;;34.00;25.42;;;20.00;99.90;;;;;;4978062;28;20455;-79
2022/05/20 09:24:03;;;;;;;34.08;27.48;;;20.10;99.90;;;;;;4976913;28;20482;-80
2022/05/20 09:26:43;;;;;;;26.90;20.65;;;20.10;99.90;;;;;;4977464;28;20049;-80
2022/05/20 09:29:21;;;;;;;30.02;22.15;;;20.20;99.90;;;;;;4960461;28;20157;-80
2022/05/20 09:31:58;;;;;;;37.65;27.60;;;20.30;99.90;;;;;;4960501;28;20042;-80
2022/05/20 09:34:26;;;;;;;39.10;28.88;;;20.40;99.90;;;;;;4977313;28;20026;-80
2022/05/20 09:37:11;;;;;;;36.10;29.15;;;20.40;99.90;;;;;;4954275;28;20038;-80
2022/05/20 09:39:39;;;;;;;33.83;27.45;;;20.50;99.90;;;;;;4973355;28;20035;-80
2022/05/20 09:42:27;;;;;;;33.33;26.55;;;20.50;99.90;;;;;;4966018;28;20082;-80
2022/05/20 09:45:00;;;;;;;40.50;31.35;;;20.60;99.90;;;;;;4975367;28;20023;-80
2022/05/20 09:47:54;;;;;;;26.30;23.33;;;20.60;99.90;;;;;;4960267;28;20046;-83
2022/05/20 09:50:25;;;;;;;37.30;27.70;;;20.70;99.90;;;;;;4973209;28;20031;-82
2022/05/20 09:52:59;;;;;;;29.00;22.63;;;20.70;99.90;;;;;;4975523;28;20118;-82
2022/05/20 09:55:27;;;;;;;39.90;27.15;;;20.70;99.90;;;;;;4957667;28;20482;-82
2022/05/20 09:57:57;;;;;;;29.08;23.08;;;20.70;99.90;;;;;;4979957;28;20034;-80
2022/05/20 10:03:50;;;;;;;41.05;21.25;;;20.80;99.90;;;;;;4973260;28;20045;-80
2022/05/20 10:06:25;;;;;;;23.25;15.82;;;20.80;99.90;;;;;;4959357;28;20027;-83
2022/05/20 10:09:00;;;;;;;20.27;15.68;;;20.90;99.90;;;;;;4976284;28;20034;-83
2022/05/20 10:11:32;;;;;;;20.20;12.63;;;20.90;99.90;;;;;;4959137;28;20047;-83
2022/05/20 10:14:11;;;;;;;30.30;19.10;;;20.90;99.90;;;;;;4976211;28;20077;-82
2022/05/20 10:16:45;;;;;;;26.17;16.10;;;21.00;99.90;;;;;;4942991;28;20035;-83
2022/05/20 10:19:25;;;;;;;26.27;17.15;;;21.00;99.90;;;;;;4976401;28;20019;-83
2022/05/20 10:21:58;;;;;;;30.40;16.88;;;21.00;99.90;;;;;;4976192;28;20019;-83
2022/05/20 10:25:05;;;;;;;27.08;20.63;;;21.10;99.90;;;;;;4976202;28;20248;-80
2022/05/20 10:27:44;;;;;;;24.27;18.55;;;21.20;99.90;;;;;;4958973;28;20062;-80
2022/05/20 10:33:06;;;;;;;21.00;15.68;;;21.20;99.90;;;;;;4976166;28;20454;-80
2022/05/20 10:36:02;;;;;;;14.88;13.25;;;21.20;99.90;;;;;;4976182;28;20054;-80
2022/05/20 10:38:49;;;;;;;22.65;14.75;;;21.20;99.90;;;;;;4975837;28;20022;-80
2022/05/20 10:41:44;;;;;;;15.35;10.10;;;21.20;99.90;;;;;;4958709;28;20402;-80
2022/05/20 10:50:33;;;;;;;14.13;9.88;;;21.40;99.90;;;;;;4976097;28;20030;-80
2022/05/20 10:53:13;;;;;;;14.15;12.13;;;21.40;99.90;;;;;;4946377;28;20071;-80
2022/05/20 10:56:16;;;;;;;18.23;10.43;;;21.50;99.90;;;;;;4960496;28;20027;-80
2022/05/20 10:58:54;;;;;;;12.45;8.40;;;21.50;99.90;;;;;;4954533;28;20435;-80
2022/05/20 11:01:53;;;;;;;9.48;6.43;;;21.50;99.90;;;;;;4972858;28;20034;-80
2022/05/20 11:04:43;;;;;;;15.70;10.73;;;21.50;99.90;;;;;;4970817;28;20491;-79
2022/05/20 11:07:20;;;;;;;12.48;9.52;;;21.60;99.90;;;;;;4956167;29;20480;-82
2022/05/20 11:10:13;;;;;;;9.75;6.80;;;21.60;99.90;;;;;;4961858;28;20078;-80
2022/05/20 11:12:57;;;;;;;9.63;6.85;;;21.60;99.90;;;;;;4966627;28;20027;-79
2022/05/20 11:15:45;;;;;;;9.05;7.38;;;21.60;99.90;;;;;;4966078;28;20459;-80
2022/05/20 11:18:18;;;;;;;13.05;7.93;;;21.60;99.90;;;;;;4938725;29;20038;-82
2022/05/20 11:21:05;;;;;;;10.82;7.57;;;21.70;99.90;;;;;;4964928;28;20023;-83
2022/05/20 11:24:02;;;;;;;12.60;7.72;;;21.70;99.90;;;;;;4953899;28;20034;-82
2022/05/20 11:26:40;;;;;;;10.88;7.32;;;21.70;99.90;;;;;;4966932;28;20019;-80
2022/05/20 11:29:32;;;;;;;10.23;7.07;;;21.80;99.90;;;;;;4972204;28;20026;-80
2022/05/20 11:32:07;;;;;;;9.80;6.88;;;21.90;99.90;;;;;;4937750;28;20125;-80
2022/05/20 11:35:04;;;;;;;17.23;7.72;;;21.90;99.90;;;;;;4955838;28;20034;-80
2022/05/20 11:37:53;;;;;;;15.23;8.77;;;21.90;99.90;;;;;;4974426;28;20038;-79
2022/05/20 11:40:35;;;;;;;11.70;7.55;;;22.00;99.90;;;;;;4974466;28;20041;-79
2022/05/20 11:43:35;;;;;;;8.93;7.28;;;22.00;99.90;;;;;;4954524;28;20034;-79
2022/05/20 11:46:12;;;;;;;17.88;8.52;;;22.00;99.90;;;;;;4973827;28;20382;-80
2022/05/20 11:49:17;;;;;;;12.85;8.98;;;22.00;99.90;;;;;;4972137;28;20055;-80
2022/05/20 11:51:51;;;;;;;10.93;7.82;;;22.10;99.90;;;;;;4975140;28;20489;-81
2022/05/20 11:54:16;;;;;;;11.32;8.10;;;22.10;99.90;;;;;;4967453;28;20023;-80
2022/05/20 11:56:48;;;;;;;13.93;8.07;;;22.30;99.90;;;;;;4959552;28;20154;-80
2022/05/20 11:59:22;;;;;;;10.10;7.55;;;22.30;99.90;;;;;;4953083;28;20027;-80
2022/05/20 12:01:51;;;;;;;9.98;7.38;;;22.40;99.90;;;;;;4974288;28;20066;-80
2022/05/20 12:04:21;;;;;;;11.05;7.75;;;22.30;99.90;;;;;;4948519;28;20115;-82
2022/05/20 12:06:52;;;;;;;10.88;7.07;;;22.30;99.90;;;;;;4975719;28;20019;-80
2022/05/20 12:09:26;;;;;;;9.27;7.15;;;22.30;99.90;;;;;;4967084;28;20101;-79
2022/05/20 12:12:30;;;;;;;15.47;8.13;;;22.30;99.90;;;;;;4979258;28;20073;-80
2022/05/20 12:15:13;;;;;;;7.18;6.47;;;22.20;99.90;;;;;;4972921;28;20109;-79
2022/05/20 12:17:49;;;;;;;9.52;7.45;;;22.20;99.90;;;;;;4950539;28;20387;-79
2022/05/20 12:26:08;;;;;;;9.35;6.93;;;22.20;99.90;;;;;;4946610;28;20185;-80
2022/05/20 12:28:36;;;;;;;10.48;7.38;;;22.20;99.90;;;;;;4973023;28;20109;-79
2022/05/20 12:31:20;;;;;;;9.18;6.70;;;22.30;99.90;;;;;;4961834;28;20022;-79
2022/05/20 12:34:03;;;;;;;9.82;7.22;;;22.30;99.90;;;;;;4971663;28;20031;-80
2022/05/20 12:36:30;;;;;;;10.07;8.20;;;22.40;99.90;;;;;;4955623;28;20557;-80
2022/05/20 12:39:08;;;;;;;11.32;6.78;;;22.40;99.90;;;;;;4977790;28;20037;-80
2022/05/20 12:41:44;;;;;;;8.23;6.70;;;22.40;99.90;;;;;;4966010;28;20046;-80
2022/05/20 12:44:15;;;;;;;9.18;7.07;;;22.40;99.90;;;;;;4965150;28;20030;-80
2022/05/20 12:47:12;;;;;;;8.32;6.70;;;22.50;99.90;;;;;;4973529;28;20027;-80
2022/05/20 12:50:04;;;;;;;8.25;6.43;;;22.50;99.90;;;;;;4973167;28;20386;-80
2022/05/20 12:52:34;;;;;;;12.73;9.18;;;22.50;99.90;;;;;;4973503;28;20109;-80
2022/05/20 12:55:16;;;;;;;14.50;8.98;;;22.50;99.90;;;;;;4955037;28;20504;-80
2022/05/20 12:58:12;;;;;;;13.40;8.98;;;22.70;99.90;;;;;;4973719;28;20034;-79
2022/05/20 13:00:48;;;;;;;18.65;8.13;;;22.70;99.90;;;;;;4960803;28;20495;-80
2022/05/20 13:03:34;;;;;;;11.10;7.40;;;22.70;99.90;;;;;;4953927;28;20789;-81
2022/05/20 13:06:02;;;;;;;7.45;6.15;;;22.70;99.90;;;;;;4969800;28;20030;-82
2022/05/20 13:09:04;;;;;;;13.55;6.32;;;22.70;99.90;;;;;;4970473;28;20027;-82
2022/05/20 13:11:41;;;;;;;8.38;6.35;;;22.60;99.90;;;;;;4947845;29;20035;-81
2022/05/20 13:14:12;;;;;;;7.63;5.85;;;22.60;99.90;;;;;;4936767;29;20039;-82
2022/05/20 13:16:40;;;;;;;10.88;7.32;;;22.70;99.90;;;;;;4949689;28;20089;-81
2022/05/20 13:19:17;;;;;;;7.40;6.13;;;22.70;99.90;;;;;;4951003;28;20069;-79
2022/05/20 13:21:50;;;;;;;11.77;8.30;;;22.80;99.90;;;;;;4945717;28;20028;-81
2022/05/20 13:24:28;;;;;;;8.48;5.88;;;23.00;99.90;;;;;;4951014;29;20126;-81
2022/05/20 13:27:19;;;;;;;7.68;5.88;;;23.10;99.90;;;;;;4950132;29;20418;-81
2022/05/20 13:29:46;;;;;;;11.98;7.07;;;23.20;99.90;;;;;;4952997;29;20023;-80
2022/05/20 13:32:13;;;;;;;8.45;5.90;;;23.30;99.90;;;;;;4952303;28;20459;-81
2022/05/20 13:34:41;;;;;;;8.35;6.38;;;23.30;99.90;;;;;;4951791;28;20031;-81
2022/05/20 13:37:10;;;;;;;8.32;6.10;;;23.30;99.90;;;;;;4951018;28;20038;-80
2022/05/20 13:39:36;;;;;;;7.20;5.82;;;23.30;99.90;;;;;;4954087;29;20114;-80
2022/05/20 13:42:08;;;;;;;11.20;7.25;;;23.20;99.90;;;;;;4953284;29;20494;-82
2022/05/20 13:44:34;;;;;;;8.20;6.65;;;23.20;99.90;;;;;;4950538;29;20023;-80
2022/05/20 13:49:48;;;;;;;13.13;7.10;;;23.40;99.90;;;;;;4946929;28;20030;-81
2022/05/20 13:52:15;;;;;;;11.18;5.75;;;23.60;99.90;;;;;;4949573;28;20087;-80
2022/05/20 13:55:02;;;;;;;11.02;6.10;;;23.70;99.90;;;;;;4951646;28;20030;-81
2022/05/20 13:57:38;;;;;;;6.55;4.88;;;23.90;99.90;;;;;;4957058;28;20046;-81
2022/05/20 14:00:11;;;;;;;;;;;24.00;99.90;;;;;;4953965;28;20028;-81
2022/05/20 14:02:40;;;;;;;7.70;5.95;;;24.00;99.90;;;;;;4950766;28;20337;-81
2022/05/20 14:05:22;;;;;;;9.75;5.07;;;24.10;99.90;;;;;;4944718;28;20547;-80
2022/05/20 14:07:53;;;;;;;8.73;5.72;;;24.00;99.90;;;;;;4951004;28;20459;-80
2022/05/20 14:10:37;;;;;;;8.73;5.05;;;24.00;99.90;;;;;;4949699;28;20057;-80
2022/05/20 14:13:04;;;;;;;9.90;5.55;;;24.00;99.90;;;;;;4946168;28;20035;-81
2022/05/20 14:15:41;;;;;;;10.95;5.20;;;23.90;99.90;;;;;;4954107;28;20379;-81
2022/05/20 14:18:25;;;;;;;5.93;4.93;;;23.90;99.90;;;;;;4949928;28;20034;-81
2022/05/20 14:20:58;;;;;;;9.73;5.22;;;23.80;99.90;;;;;;4955135;29;20054;-81
2022/05/20 14:23:28;;;;;;;9.05;5.90;;;23.80;99.90;;;;;;4955947;28;20031;-81
2022/05/20 14:26:04;;;;;;;8.55;5.45;;;23.80;99.90;;;;;;4955971;28;20110;-80
2022/05/20 14:28:45;;;;;;;7.97;4.82;;;23.70;99.90;;;;;;4955776;28;20031;-81
2022/05/20 14:31:23;;;;;;;7.28;5.22;;;23.70;99.90;;;;;;4957644;28;20027;-81
2022/05/20 14:33:54;;;;;;;8.27;4.63;;;23.70;99.90;;;;;;4952027;28;20563;-81
2022/05/20 14:36:21;;;;;;;8.90;4.95;;;23.60;99.90;;;;;;4954980;28;20194;-81
2022/05/20 14:38:49;;;;;;;9.98;4.97;;;23.70;99.90;;;;;;4954432;28;20031;-81
2022/05/20 14:41:22;;;;;;;8.57;5.20;;;23.70;99.90;;;;;;4965303;28;20122;-81
2022/05/20 14:43:59;;;;;;;9.50;5.10;;;23.80;99.90;;;;;;4956124;28;20031;-81
2022/05/20 14:49:37;;;;;;;9.88;4.80;;;23.80;99.90;;;;;;4953150;28;20050;-81
2022/05/20 14:52:04;;;;;;;6.53;4.82;;;23.90;99.90;;;;;;4954717;28;20041;-81
2022/05/20 14:54:43;;;;;;;8.18;5.03;;;23.90;99.90;;;;;;4956807;28;20542;-81
2022/05/20 14:57:31;;;;;;;5.65;4.70;;;23.90;99.90;;;;;;4965201;28;20030;-81
2022/05/20 15:00:25;;;;;;;8.60;5.35;;;23.90;99.90;;;;;;4972659;28;20069;-82
2022/05/20 15:02:55;;;;;;;7.35;5.70;;;23.80;99.90;;;;;;4945415;28;20105;-80
2022/05/20 15:05:24;;;;;;;9.90;6.00;;;23.80;99.90;;;;;;4955838;28;20098;-80
2022/05/20 15:08:03;;;;;;;8.77;6.20;;;23.70;99.90;;;;;;4951893;28;20028;-80
2022/05/20 15:10:31;;;;;;;13.82;6.22;;;23.70;99.90;;;;;;4954771;28;20049;-81
2022/05/20 15:12:57;;;;;;;9.57;5.65;;;23.60;99.90;;;;;;4968885;28;20034;-81
2022/05/20 15:15:23;;;;;;;7.35;4.45;;;23.70;99.90;;;;;;4975571;28;20022;-81
2022/05/20 15:18:00;;;;;;;7.57;5.68;;;23.80;99.90;;;;;;4960952;28;20023;-80
2022/05/20 15:20:27;;;;;;;11.95;5.50;;;23.90;99.90;;;;;;4953771;28;20098;-82
2022/05/20 15:22:54;;;;;;;7.47;5.32;;;24.00;99.90;;;;;;4952108;29;20048;-82
2022/05/20 15:25:20;;;;;;;8.38;5.78;;;24.10;99.90;;;;;;4956371;28;20435;-81
2022/05/20 15:27:46;;;;;;;16.60;6.10;;;24.10;99.90;;;;;;4966140;28;20031;-82
2022/05/20 15:30:11;;;;;;;7.70;6.18;;;24.10;99.90;;;;;;4954248;28;20035;-82
2022/05/20 15:35:21;;;;;;;7.97;5.13;;;24.00;99.90;;;;;;4954748;29;20448;-81
2022/05/20 15:37:47;;;;;;;7.47;5.10;;;24.00;99.90;;;;;;4954805;28;20031;-81
2022/05/20 15:40:28;;;;;;;5.10;4.60;;;23.90;99.90;;;;;;4952638;29;20027;-80
2022/05/20 15:42:55;;;;;;;5.85;4.68;;;23.80;99.90;;;;;;4956390;28;20102;-81
2022/05/20 15:45:22;;;;;;;8.18;6.15;;;23.70;99.90;;;;;;4953360;28;20023;-80
2022/05/20 15:47:49;;;;;;;11.55;7.25;;;23.70;99.90;;;;;;4949259;29;20424;-83
2022/05/20 15:50:16;;;;;;;8.77;5.85;;;23.60;99.90;;;;;;4955958;29;20035;-81
2022/05/20 15:52:47;;;;;;;6.53;5.82;;;23.60;99.90;;;;;;4941326;28;20361;-81
2022/05/20 15:55:23;;;;;;;6.20;5.45;;;23.60;99.90;;;;;;4950003;29;20031;-81
2022/05/20 15:57:51;;;;;;;9.05;5.75;;;23.60;99.90;;;;;;4950952;28;20024;-81
2022/05/20 16:00:17;;;;;;;9.15;7.15;;;23.50;99.90;;;;;;4954231;28;20039;-81
2022/05/20 16:02:45;;;;;;;7.05;6.35;;;23.40;99.90;;;;;;4953555;28;20023;-81
2022/05/20 16:05:22;;;;;;;9.63;5.93;;;23.40;99.90;;;;;;4953166;28;20498;-81
2022/05/20 16:07:54;;;;;;;14.00;5.82;;;23.40;99.90;;;;;;4953876;28;20070;-81
2022/05/20 16:10:26;;;;;;;12.95;6.28;;;23.30;99.90;;;;;;4963905;28;20058;-80
2022/05/20 16:12:53;;;;;;;23.23;7.47;;;23.20;99.90;;;;;;4972351;28;20106;-81
2022/05/20 16:15:20;;;;;;;21.90;8.27;;;23.20;99.90;;;;;;4971028;28;20037;-82
2022/05/20 16:17:46;;;;;;;16.38;8.65;;;23.20;99.90;;;;;;4952132;28;20403;-82
2022/05/20 16:20:12;;;;;;;19.08;9.52;;;23.10;99.90;;;;;;4967937;28;20062;-82
2022/05/20 16:22:40;;;;;;;23.33;11.15;;;22.80;99.90;;;;;;4956510;28;20073;-84
2022/05/20 16:25:08;;;;;;;31.75;15.10;;;22.60;99.90;;;;;;4984126;28;20090;-86
2022/05/20 16:27:39;;;;;;;21.77;12.38;;;22.30;99.90;;;;;;4979201;28;20553;-85
2022/05/20 16:30:06;;;;;;;26.15;12.43;;;22.00;99.90;;;;;;4971905;28;20031;-85
2022/05/20 16:32:38;;;;;;;19.27;11.95;;;21.80;99.90;;;;;;4975472;28;20056;-85